createdAt,value
2017-06-28T00:00:15.115Z,87.29
2017-06-28T00:00:41.222Z,87.72
2017-06-28T00:01:07.319Z,87.19
2017-06-28T00:01:33.461Z,87.57
2017-06-28T00:01:59.595Z,87.43
2017-06-28T00:02:25.721Z,87.43
2017-06-28T00:02:51.840Z,87.62
2017-06-28T00:03:17.990Z,87.76
2017-06-28T00:03:44.105Z,87.62
2017-06-28T00:04:10.265Z,87.72
2017-06-28T00:04:36.389Z,87.62
2017-06-28T00:05:02.530Z,88.1
2017-06-28T00:05:28.638Z,87.24
2017-06-28T00:05:54.764Z,87.53
2017-06-28T00:06:20.855Z,87.15
2017-06-28T00:06:47.038Z,87.38
2017-06-28T00:07:13.173Z,87.05
2017-06-28T00:07:39.284Z,87.48
2017-06-28T00:08:05.386Z,87.48
2017-06-28T00:08:31.592Z,87.48
2017-06-28T00:08:57.684Z,87.38
2017-06-28T00:09:23.837Z,87.82
2017-06-28T00:09:50.003Z,87.53
2017-06-28T00:10:16.106Z,87.38
2017-06-28T00:10:42.237Z,87.19
2017-06-28T00:11:08.401Z,87.34
2017-06-28T00:11:34.526Z,87.53
2017-06-28T00:12:00.633Z,87.62
2017-06-28T00:12:26.724Z,87.82
2017-06-28T00:12:52.844Z,87.82
2017-06-28T00:13:19.035Z,87.53
2017-06-28T00:13:45.183Z,87.62
2017-06-28T00:14:11.300Z,87.53
2017-06-28T00:14:37.457Z,87.43
2017-06-28T00:15:03.611Z,87.62
2017-06-28T00:15:29.745Z,87.53
2017-06-28T00:15:55.836Z,87.62
2017-06-28T00:16:21.982Z,87.24
2017-06-28T00:16:48.087Z,87.05
2017-06-28T00:17:14.208Z,87.43
2017-06-28T00:17:40.349Z,87.34
2017-06-28T00:18:06.484Z,87.72
2017-06-28T00:18:32.607Z,87.48
2017-06-28T00:18:58.723Z,87.34
2017-06-28T00:19:24.858Z,87.72
2017-06-28T00:19:50.986Z,88.01
2017-06-28T00:20:17.099Z,88.39
2017-06-28T00:20:43.203Z,88.2
2017-06-28T00:21:09.310Z,88.01
2017-06-28T00:21:35.394Z,88.39
2017-06-28T00:22:01.522Z,88.39
2017-06-28T00:22:27.647Z,87.92
2017-06-28T00:22:53.737Z,88.2
2017-06-28T00:23:19.835Z,88.3
2017-06-28T00:23:45.940Z,88.2
2017-06-28T00:24:12.034Z,87.82
2017-06-28T00:24:38.170Z,88.01
2017-06-28T00:25:04.308Z,87.92
2017-06-28T00:25:30.404Z,88.1
2017-06-28T00:25:56.506Z,87.82
2017-06-28T00:26:22.623Z,87.72
2017-06-28T00:26:48.721Z,87.62
2017-06-28T00:27:14.854Z,87.34
2017-06-28T00:27:40.946Z,87.62
2017-06-28T00:28:07.061Z,87.82
2017-06-28T00:28:33.226Z,87.53
2017-06-28T00:28:59.320Z,88.01
2017-06-28T00:29:25.435Z,88.1
2017-06-28T00:29:51.567Z,88.01
2017-06-28T00:30:17.695Z,87.34
2017-06-28T00:30:43.833Z,87.53
2017-06-28T00:31:09.985Z,87.62
2017-06-28T00:31:36.129Z,87.62
2017-06-28T00:32:02.238Z,87.34
2017-06-28T00:32:28.333Z,87.62
2017-06-28T00:32:54.473Z,87.43
2017-06-28T00:33:20.603Z,87.48
2017-06-28T00:33:46.729Z,87.24
2017-06-28T00:34:12.841Z,87.15
2017-06-28T00:34:39.048Z,87.76
2017-06-28T00:35:05.181Z,87.62
2017-06-28T00:35:31.270Z,87.34
2017-06-28T00:35:57.392Z,87.43
2017-06-28T00:36:23.501Z,87.43
2017-06-28T00:36:49.589Z,87.62
2017-06-28T00:37:15.693Z,87.53
2017-06-28T00:37:41.783Z,87.05
2017-06-28T00:38:07.910Z,86.95
2017-06-28T00:38:34.075Z,87.43
2017-06-28T00:39:00.188Z,87.34
2017-06-28T00:39:26.339Z,87.53
2017-06-28T00:39:52.500Z,87.34
2017-06-28T00:40:18.669Z,87.34
2017-06-28T00:40:44.790Z,87.72
2017-06-28T00:41:10.893Z,88.1
2017-06-28T00:41:37.013Z,87.72
2017-06-28T00:42:03.104Z,87.82
2017-06-28T00:42:29.207Z,87.82
2017-06-28T00:42:55.335Z,87.72
2017-06-28T00:43:21.492Z,87.72
2017-06-28T00:43:47.608Z,88.1
2017-06-28T00:44:13.752Z,87.82
2017-06-28T00:44:39.942Z,88.01
2017-06-28T00:45:06.064Z,88.2
2017-06-28T00:45:32.204Z,87.92
2017-06-28T00:45:58.369Z,88.2
2017-06-28T00:46:24.466Z,88.39
2017-06-28T00:46:50.556Z,88.2
2017-06-28T00:47:16.664Z,88.39
2017-06-28T00:47:42.820Z,88.01
2017-06-28T00:48:08.991Z,88.01
2017-06-28T00:48:35.166Z,88.2
2017-06-28T00:49:01.330Z,88.01
2017-06-28T00:49:27.464Z,88.1
2017-06-28T00:49:53.587Z,88.39
2017-06-28T00:50:19.679Z,87.82
2017-06-28T00:50:45.807Z,88.3
2017-06-28T00:51:11.964Z,88.2
2017-06-28T00:51:38.054Z,88.01
2017-06-28T00:52:04.159Z,88.1
2017-06-28T00:52:30.320Z,88.01
2017-06-28T00:52:56.430Z,88.01
2017-06-28T00:53:22.529Z,88.3
2017-06-28T00:53:48.676Z,88.3
2017-06-28T00:54:14.782Z,88.1
2017-06-28T00:54:40.908Z,88.1
2017-06-28T00:55:07.071Z,88.01
2017-06-28T00:55:33.203Z,88.2
2017-06-28T00:55:59.337Z,88.2
2017-06-28T00:56:25.502Z,88.39
2017-06-28T00:56:51.625Z,88.01
2017-06-28T00:57:17.789Z,87.92
2017-06-28T00:57:43.983Z,88.01
2017-06-28T00:58:10.126Z,87.92
2017-06-28T00:58:36.287Z,87.92
2017-06-28T00:59:02.431Z,88.01
2017-06-28T00:59:28.591Z,87.92
2017-06-28T00:59:54.727Z,87.72
2017-06-28T01:00:20.825Z,87.62
2017-06-28T01:00:46.959Z,87.62
2017-06-28T01:01:13.052Z,87.34
2017-06-28T01:01:39.170Z,87.34
2017-06-28T01:02:05.277Z,87.92
2017-06-28T01:02:31.393Z,87.53
2017-06-28T01:02:57.507Z,87.15
2017-06-28T01:03:23.616Z,87.53
2017-06-28T01:03:49.742Z,87.43
2017-06-28T01:04:15.833Z,87.43
2017-06-28T01:04:41.966Z,87.62
2017-06-28T01:05:08.092Z,87.76
2017-06-28T01:05:34.182Z,87.24
2017-06-28T01:06:00.313Z,87.29
2017-06-28T01:06:26.446Z,87.09
2017-06-28T01:06:52.582Z,86.95
2017-06-28T01:07:18.681Z,87.05
2017-06-28T01:07:44.843Z,87.29
2017-06-28T01:08:11.010Z,86.95
2017-06-28T01:08:37.133Z,87.19
2017-06-28T01:09:03.265Z,86.95
2017-06-28T01:09:29.410Z,87.19
2017-06-28T01:09:55.525Z,87.34
2017-06-28T01:10:21.656Z,87.24
2017-06-28T01:10:47.786Z,87.53
2017-06-28T01:11:13.917Z,87.53
2017-06-28T01:11:40.034Z,87.72
2017-06-28T01:12:06.154Z,87.53
2017-06-28T01:12:32.288Z,87.53
2017-06-28T01:12:58.434Z,87.05
2017-06-28T01:13:24.524Z,87.43
2017-06-28T01:13:50.663Z,87.43
2017-06-28T01:14:16.843Z,87.34
2017-06-28T01:14:43.028Z,87.72
2017-06-28T01:15:09.160Z,87.92
2017-06-28T01:15:35.289Z,87.34
2017-06-28T01:16:01.416Z,87.43
2017-06-28T01:16:27.508Z,87.34
2017-06-28T01:16:53.599Z,87.43
2017-06-28T01:17:19.708Z,87.82
2017-06-28T01:17:45.831Z,87.62
2017-06-28T01:18:11.922Z,87.92
2017-06-28T01:18:38.028Z,88.01
2017-06-28T01:19:04.129Z,88.01
2017-06-28T01:19:30.219Z,87.92
2017-06-28T01:19:56.321Z,87.92
2017-06-28T01:20:22.427Z,87.92
2017-06-28T01:20:48.515Z,88.01
2017-06-28T01:21:14.615Z,87.92
2017-06-28T01:21:40.707Z,87.92
2017-06-28T01:22:06.842Z,88.1
2017-06-28T01:22:32.941Z,87.72
2017-06-28T01:22:59.056Z,87.82
2017-06-28T01:23:25.159Z,87.62
2017-06-28T01:23:51.293Z,87.62
2017-06-28T01:24:17.456Z,87.62
2017-06-28T01:24:43.630Z,87.34
2017-06-28T01:25:09.765Z,87.92
2017-06-28T01:25:35.853Z,87.53
2017-06-28T01:26:01.960Z,86.95
2017-06-28T01:26:28.093Z,87.24
2017-06-28T01:26:54.186Z,87.53
2017-06-28T01:27:20.294Z,87.62
2017-06-28T01:27:46.407Z,87.62
2017-06-28T01:28:12.532Z,87.62
2017-06-28T01:28:38.747Z,87.24
2017-06-28T01:29:04.890Z,86.57
2017-06-28T01:29:31.062Z,86.85
2017-06-28T01:29:57.196Z,87.05
2017-06-28T01:30:23.286Z,86.76
2017-06-28T01:30:49.402Z,86.85
2017-06-28T01:31:15.536Z,86.95
2017-06-28T01:31:41.633Z,86.85
2017-06-28T01:32:07.724Z,86.95
2017-06-28T01:32:33.857Z,87.15
2017-06-28T01:32:59.974Z,86.95
2017-06-28T01:33:26.107Z,87.34
2017-06-28T01:33:52.202Z,87.24
2017-06-28T01:34:18.341Z,87.72
2017-06-28T01:34:44.475Z,87.43
2017-06-28T01:35:10.598Z,87.34
2017-06-28T01:35:36.689Z,87.43
2017-06-28T01:36:02.818Z,87.34
2017-06-28T01:36:28.945Z,87.05
2017-06-28T01:36:55.037Z,87.24
2017-06-28T01:37:21.140Z,87.53
2017-06-28T01:37:47.275Z,87.62
2017-06-28T01:38:13.418Z,87.62
2017-06-28T01:38:39.619Z,87.62
2017-06-28T01:39:05.732Z,87.53
2017-06-28T01:39:31.838Z,87.43
2017-06-28T01:39:57.965Z,87.62
2017-06-28T01:40:24.081Z,87.43
2017-06-28T01:40:50.184Z,87.62
2017-06-28T01:41:16.316Z,87.24
2017-06-28T01:41:42.429Z,87.34
2017-06-28T01:42:08.554Z,87.24
2017-06-28T01:42:34.661Z,87.53
2017-06-28T01:43:00.776Z,87.62
2017-06-28T01:43:26.899Z,87.53
2017-06-28T01:43:53.024Z,87.43
2017-06-28T01:44:19.174Z,87.24
2017-06-28T01:44:45.338Z,87.15
2017-06-28T01:45:11.425Z,87.15
2017-06-28T01:45:37.524Z,87.15
2017-06-28T01:46:03.657Z,87.53
2017-06-28T01:46:29.750Z,87.43
2017-06-28T01:46:55.849Z,87.43
2017-06-28T01:47:21.981Z,87.24
2017-06-28T01:47:48.097Z,87.72
2017-06-28T01:48:14.212Z,87.53
2017-06-28T01:48:40.347Z,87.62
2017-06-28T01:49:06.472Z,87.43
2017-06-28T01:49:32.709Z,87.53
2017-06-28T01:49:58.871Z,87.72
2017-06-28T01:50:25.026Z,87.43
2017-06-28T01:50:51.118Z,87.43
2017-06-28T01:51:17.272Z,87.43
2017-06-28T01:51:43.375Z,87.62
2017-06-28T01:52:09.486Z,87.62
2017-06-28T01:52:35.588Z,87.24
2017-06-28T01:53:01.751Z,87.24
2017-06-28T01:53:27.840Z,87.43
2017-06-28T01:53:53.989Z,87.53
2017-06-28T01:54:20.151Z,87.72
2017-06-28T01:54:46.326Z,87.53
2017-06-28T01:55:12.457Z,87.62
2017-06-28T01:55:38.546Z,87.92
2017-06-28T01:56:04.721Z,87.53
2017-06-28T01:56:30.827Z,87.05
2017-06-28T01:56:56.920Z,87.34
2017-06-28T01:57:23.041Z,87.53
2017-06-28T01:57:49.203Z,87.92
2017-06-28T01:58:15.347Z,87.82
2017-06-28T01:58:41.460Z,87.82
2017-06-28T01:59:07.598Z,87.72
2017-06-28T01:59:33.722Z,87.92
2017-06-28T01:59:59.813Z,87.92
2017-06-28T02:00:25.947Z,87.82
2017-06-28T02:00:52.067Z,87.82
2017-06-28T02:01:18.201Z,87.53
2017-06-28T02:01:44.293Z,87.53
2017-06-28T02:02:10.384Z,87.62
2017-06-28T02:02:36.544Z,87.43
2017-06-28T02:03:02.668Z,87.92
2017-06-28T02:03:28.830Z,87.24
2017-06-28T02:03:54.961Z,87.43
2017-06-28T02:04:21.175Z,87.43
2017-06-28T02:04:47.314Z,87.53
2017-06-28T02:05:13.466Z,87.24
2017-06-28T02:05:39.625Z,87.24
2017-06-28T02:06:05.721Z,87.43
2017-06-28T02:06:31.871Z,87.53
2017-06-28T02:06:57.986Z,87.43
2017-06-28T02:07:24.094Z,87.62
2017-06-28T02:07:50.220Z,87.34
2017-06-28T02:08:16.335Z,87.62
2017-06-28T02:08:42.489Z,87.62
2017-06-28T02:09:08.652Z,87.62
2017-06-28T02:09:34.792Z,87.62
2017-06-28T02:10:01.240Z,87.72
2017-06-28T02:10:27.373Z,87.62
2017-06-28T02:10:53.489Z,87.92
2017-06-28T02:11:19.610Z,87.92
2017-06-28T02:11:45.735Z,87.34
2017-06-28T02:12:11.867Z,87.53
2017-06-28T02:12:38.002Z,87.15
2017-06-28T02:13:04.142Z,87.43
2017-06-28T02:13:30.243Z,87.43
2017-06-28T02:13:56.377Z,87.72
2017-06-28T02:14:22.467Z,87.62
2017-06-28T02:14:48.614Z,88.1
2017-06-28T02:15:14.747Z,87.72
2017-06-28T02:15:40.839Z,87.53
2017-06-28T02:16:06.929Z,87.62
2017-06-28T02:16:33.040Z,87.34
2017-06-28T02:16:59.162Z,87.43
2017-06-28T02:17:25.266Z,87.62
2017-06-28T02:17:51.437Z,87.82
2017-06-28T02:18:17.583Z,87.62
2017-06-28T02:18:43.742Z,87.62
2017-06-28T02:19:09.862Z,87.62
2017-06-28T02:19:36.002Z,87.82
2017-06-28T02:20:02.162Z,87.82
2017-06-28T02:20:28.258Z,87.53
2017-06-28T02:20:54.400Z,87.92
2017-06-28T02:21:20.505Z,87.82
2017-06-28T02:21:46.632Z,87.62
2017-06-28T02:22:12.749Z,87.82
2017-06-28T02:22:38.879Z,87.62
2017-06-28T02:23:04.968Z,87.82
2017-06-28T02:23:31.131Z,87.82
2017-06-28T02:23:57.284Z,87.72
2017-06-28T02:24:23.398Z,87.72
2017-06-28T02:24:49.527Z,87.82
2017-06-28T02:25:15.629Z,87.92
2017-06-28T02:25:41.742Z,88.2
2017-06-28T02:26:07.842Z,88.01
2017-06-28T02:26:33.976Z,87.82
2017-06-28T02:27:00.089Z,88.1
2017-06-28T02:27:26.213Z,87.92
2017-06-28T02:27:52.319Z,88.3
2017-06-28T02:28:18.434Z,87.92
2017-06-28T02:28:44.538Z,88.3
2017-06-28T02:29:10.678Z,88.01
2017-06-28T02:29:36.781Z,87.92
2017-06-28T02:30:02.883Z,88.1
2017-06-28T02:30:29.022Z,88.1
2017-06-28T02:30:55.121Z,88.1
2017-06-28T02:31:21.227Z,88.2
2017-06-28T02:31:47.316Z,88.49
2017-06-28T02:32:13.433Z,88.39
2017-06-28T02:32:39.623Z,88.1
2017-06-28T02:33:05.764Z,88.2
2017-06-28T02:33:31.904Z,88.3
2017-06-28T02:33:58.044Z,88.01
2017-06-28T02:34:24.169Z,88.39
2017-06-28T02:34:50.258Z,88.2
2017-06-28T02:35:16.417Z,87.82
2017-06-28T02:35:42.546Z,87.72
2017-06-28T02:36:08.685Z,87.62
2017-06-28T02:36:34.818Z,88.1
2017-06-28T02:37:00.980Z,87.62
2017-06-28T02:37:27.169Z,87.82
2017-06-28T02:37:53.294Z,87.82
2017-06-28T02:38:19.427Z,87.82
2017-06-28T02:38:45.567Z,87.62
2017-06-28T02:39:11.687Z,87.82
2017-06-28T02:39:37.782Z,87.53
2017-06-28T02:40:03.964Z,88.1
2017-06-28T02:40:30.067Z,88.01
2017-06-28T02:40:56.155Z,88.1
2017-06-28T02:41:22.282Z,87.82
2017-06-28T02:41:48.388Z,87.53
2017-06-28T02:42:14.479Z,87.34
2017-06-28T02:42:40.574Z,87.24
2017-06-28T02:43:06.707Z,87.43
2017-06-28T02:43:32.797Z,87.43
2017-06-28T02:43:58.889Z,87.43
2017-06-28T02:44:25.056Z,87.53
2017-06-28T02:44:51.152Z,87.62
2017-06-28T02:45:17.255Z,87.34
2017-06-28T02:45:43.381Z,87.43
2017-06-28T02:46:09.496Z,87.24
2017-06-28T02:46:35.602Z,87.24
2017-06-28T02:47:01.723Z,87.43
2017-06-28T02:47:27.840Z,87.53
2017-06-28T02:47:53.950Z,87.62
2017-06-28T02:48:20.130Z,87.43
2017-06-28T02:48:46.271Z,87.92
2017-06-28T02:49:12.452Z,87.34
2017-06-28T02:49:38.611Z,87.34
2017-06-28T02:50:04.750Z,87.05
2017-06-28T02:50:30.854Z,87.24
2017-06-28T02:50:56.945Z,87.05
2017-06-28T02:51:23.109Z,86.85
2017-06-28T02:51:49.232Z,87.34
2017-06-28T02:52:15.323Z,86.76
2017-06-28T02:52:41.478Z,86.85
2017-06-28T02:53:07.606Z,86.85
2017-06-28T02:53:33.722Z,86.85
2017-06-28T02:53:59.899Z,87.15
2017-06-28T02:54:26.032Z,86.66
2017-06-28T02:54:52.118Z,86.76
2017-06-28T02:55:18.243Z,86.66
2017-06-28T02:55:44.347Z,86.38
2017-06-28T02:56:10.439Z,86.76
2017-06-28T02:56:36.562Z,86.99
2017-06-28T02:57:02.678Z,86.66
2017-06-28T02:57:28.781Z,86.66
2017-06-28T02:57:54.917Z,86.95
2017-06-28T02:58:21.030Z,86.76
2017-06-28T02:58:47.183Z,86.76
2017-06-28T02:59:13.347Z,87.15
2017-06-28T02:59:39.514Z,86.85
2017-06-28T03:00:05.682Z,87.05
2017-06-28T03:00:31.788Z,86.85
2017-06-28T03:00:57.932Z,86.95
2017-06-28T03:01:24.023Z,87.05
2017-06-28T03:01:50.125Z,87.05
2017-06-28T03:02:16.252Z,87.62
2017-06-28T03:02:42.388Z,87.34
2017-06-28T03:03:08.557Z,87.24
2017-06-28T03:03:34.700Z,87.43
2017-06-28T03:04:00.864Z,87.34
2017-06-28T03:04:26.978Z,87.05
2017-06-28T03:04:53.091Z,87.62
2017-06-28T03:05:19.228Z,87.53
2017-06-28T03:05:45.384Z,87.62
2017-06-28T03:06:11.497Z,87.24
2017-06-28T03:06:37.626Z,87.62
2017-06-28T03:07:03.779Z,87.53
2017-06-28T03:07:29.906Z,87.53
2017-06-28T03:07:56.028Z,87.62
2017-06-28T03:08:22.141Z,87.24
2017-06-28T03:08:48.278Z,87.34
2017-06-28T03:09:14.376Z,86.95
2017-06-28T03:09:40.466Z,87.24
2017-06-28T03:10:06.572Z,87.05
2017-06-28T03:10:32.672Z,87.62
2017-06-28T03:10:58.760Z,86.95
2017-06-28T03:11:24.863Z,87.43
2017-06-28T03:11:50.970Z,87.34
2017-06-28T03:12:17.059Z,87.62
2017-06-28T03:12:43.182Z,87.92
2017-06-28T03:13:09.328Z,87.62
2017-06-28T03:13:35.481Z,87.62
2017-06-28T03:14:01.693Z,87.62
2017-06-28T03:14:27.859Z,87.34
2017-06-28T03:14:54.011Z,87.43
2017-06-28T03:15:20.142Z,87.24
2017-06-28T03:15:46.230Z,87.24
2017-06-28T03:16:12.353Z,87.43
2017-06-28T03:16:38.486Z,87.53
2017-06-28T03:17:04.579Z,87.15
2017-06-28T03:17:30.700Z,87.34
2017-06-28T03:17:56.834Z,87.15
2017-06-28T03:18:23.005Z,87.43
2017-06-28T03:18:49.097Z,87.05
2017-06-28T03:19:15.257Z,87.15
2017-06-28T03:19:41.432Z,87.15
2017-06-28T03:20:07.523Z,87.09
2017-06-28T03:20:33.630Z,86.85
2017-06-28T03:20:59.786Z,86.66
2017-06-28T03:21:25.879Z,86.85
2017-06-28T03:21:51.984Z,86.85
2017-06-28T03:22:18.086Z,86.95
2017-06-28T03:22:44.173Z,86.85
2017-06-28T03:23:10.295Z,86.66
2017-06-28T03:23:36.426Z,86.18
2017-06-28T03:24:02.570Z,87.05
2017-06-28T03:24:28.673Z,86.66
2017-06-28T03:24:54.763Z,86.66
2017-06-28T03:25:20.914Z,87.05
2017-06-28T03:25:47.020Z,86.66
2017-06-28T03:26:13.106Z,86.57
2017-06-28T03:26:39.234Z,86.66
2017-06-28T03:27:05.337Z,87.05
2017-06-28T03:27:31.428Z,86.28
2017-06-28T03:27:57.625Z,86.85
2017-06-28T03:28:23.784Z,86.85
2017-06-28T03:28:49.900Z,86.57
2017-06-28T03:29:16.017Z,86.76
2017-06-28T03:29:42.205Z,86.66
2017-06-28T03:30:08.356Z,87.05
2017-06-28T03:30:34.488Z,86.99
2017-06-28T03:31:00.577Z,87.05
2017-06-28T03:31:26.672Z,86.8
2017-06-28T03:31:52.811Z,86.99
2017-06-28T03:32:18.924Z,86.71
2017-06-28T03:32:45.039Z,86.9
2017-06-28T03:33:11.150Z,86.66
2017-06-28T03:33:37.304Z,87.05
2017-06-28T03:34:03.468Z,87.15
2017-06-28T03:34:29.631Z,86.95
2017-06-28T03:34:55.730Z,86.95
2017-06-28T03:35:21.832Z,86.85
2017-06-28T03:35:47.946Z,86.85
2017-06-28T03:36:14.036Z,87.19
2017-06-28T03:36:40.172Z,86.76
2017-06-28T03:37:06.270Z,86.66
2017-06-28T03:37:32.384Z,86.57
2017-06-28T03:37:58.520Z,86.66
2017-06-28T03:38:24.674Z,87.24
2017-06-28T03:38:50.787Z,86.76
2017-06-28T03:39:16.890Z,86.85
2017-06-28T03:39:43.022Z,87.09
2017-06-28T03:40:09.110Z,86.61
2017-06-28T03:40:35.561Z,86.61
2017-06-28T03:41:01.678Z,86.9
2017-06-28T03:41:27.785Z,86.8
2017-06-28T03:41:53.941Z,86.8
2017-06-28T03:42:20.032Z,86.8
2017-06-28T03:42:46.135Z,86.9
2017-06-28T03:43:12.240Z,86.8
2017-06-28T03:43:38.328Z,86.61
2017-06-28T03:44:04.429Z,86.13
2017-06-28T03:44:30.591Z,86.52
2017-06-28T03:44:56.733Z,86.32
2017-06-28T03:45:22.853Z,86.61
2017-06-28T03:45:49.014Z,86.42
2017-06-28T03:46:15.106Z,86.42
2017-06-28T03:46:41.213Z,86.22
2017-06-28T03:47:07.328Z,86.52
2017-06-28T03:47:33.453Z,86.22
2017-06-28T03:47:59.641Z,85.75
2017-06-28T03:48:25.753Z,86.13
2017-06-28T03:48:51.872Z,85.65
2017-06-28T03:49:18.062Z,86.22
2017-06-28T03:49:44.237Z,85.94
2017-06-28T03:50:10.380Z,85.55
2017-06-28T03:50:36.488Z,85.84
2017-06-28T03:51:02.613Z,85.94
2017-06-28T03:51:28.701Z,85.84
2017-06-28T03:51:54.836Z,85.65
2017-06-28T03:52:20.995Z,85.94
2017-06-28T03:52:47.081Z,85.94
2017-06-28T03:53:13.204Z,85.84
2017-06-28T03:53:39.296Z,85.84
2017-06-28T03:54:05.458Z,85.94
2017-06-28T03:54:31.638Z,85.46
2017-06-28T03:54:57.781Z,86.04
2017-06-28T03:55:23.886Z,85.55
2017-06-28T03:55:50.014Z,85.75
2017-06-28T03:56:16.106Z,85.75
2017-06-28T03:56:42.231Z,85.55
2017-06-28T03:57:08.390Z,84.88
2017-06-28T03:57:34.559Z,85.36
2017-06-28T03:58:00.705Z,85.17
2017-06-28T03:58:26.844Z,85.27
2017-06-28T03:58:52.952Z,85.17
2017-06-28T03:59:19.137Z,84.78
2017-06-28T03:59:45.251Z,84.98
2017-06-28T04:00:11.382Z,85.17
2017-06-28T04:00:37.487Z,84.78
2017-06-28T04:01:03.575Z,85.36
2017-06-28T04:01:29.676Z,85.07
2017-06-28T04:01:55.811Z,84.59
2017-06-28T04:02:21.900Z,84.78
2017-06-28T04:02:48.045Z,84.78
2017-06-28T04:03:14.257Z,84.83
2017-06-28T04:03:40.379Z,85.11
2017-06-28T04:04:06.495Z,84.98
2017-06-28T04:04:32.688Z,84.5
2017-06-28T04:04:58.784Z,84.83
2017-06-28T04:05:24.877Z,84.98
2017-06-28T04:05:50.982Z,84.73
2017-06-28T04:06:17.082Z,84.73
2017-06-28T04:06:43.174Z,84.44
2017-06-28T04:07:09.301Z,84.44
2017-06-28T04:07:35.404Z,84.63
2017-06-28T04:08:01.493Z,84.59
2017-06-28T04:08:27.619Z,85.07
2017-06-28T04:08:53.768Z,84.88
2017-06-28T04:09:19.931Z,85.07
2017-06-28T04:09:46.086Z,85.07
2017-06-28T04:10:12.193Z,84.69
2017-06-28T04:10:38.280Z,85.07
2017-06-28T04:11:04.438Z,85.31
2017-06-28T04:11:30.525Z,84.5
2017-06-28T04:11:56.677Z,84.78
2017-06-28T04:12:22.783Z,84.92
2017-06-28T04:12:48.923Z,85.07
2017-06-28T04:13:15.047Z,85.07
2017-06-28T04:13:41.179Z,84.83
2017-06-28T04:14:07.330Z,84.92
2017-06-28T04:14:33.491Z,84.98
2017-06-28T04:14:59.601Z,84.98
2017-06-28T04:15:25.753Z,85.11
2017-06-28T04:15:51.888Z,85.27
2017-06-28T04:16:18.032Z,84.83
2017-06-28T04:16:44.130Z,84.63
2017-06-28T04:17:10.265Z,84.98
2017-06-28T04:17:36.387Z,84.98
2017-06-28T04:18:02.501Z,84.59
2017-06-28T04:18:28.694Z,85.07
2017-06-28T04:18:54.819Z,85.07
2017-06-28T04:19:20.911Z,85.07
2017-06-28T04:19:47.018Z,84.83
2017-06-28T04:20:13.113Z,84.69
2017-06-28T04:20:39.221Z,85.27
2017-06-28T04:21:05.340Z,84.98
2017-06-28T04:21:31.457Z,85.65
2017-06-28T04:21:57.567Z,85.65
2017-06-28T04:22:23.664Z,85.84
2017-06-28T04:22:49.756Z,84.88
2017-06-28T04:23:15.864Z,84.98
2017-06-28T04:23:42.018Z,84.98
2017-06-28T04:24:08.159Z,85.46
2017-06-28T04:24:34.314Z,85.36
2017-06-28T04:25:00.448Z,84.88
2017-06-28T04:25:26.542Z,85.11
2017-06-28T04:25:52.666Z,85.11
2017-06-28T04:26:18.756Z,84.83
2017-06-28T04:26:44.862Z,85.02
2017-06-28T04:27:10.988Z,84.92
2017-06-28T04:27:37.080Z,85.02
2017-06-28T04:28:03.265Z,85.21
2017-06-28T04:28:29.424Z,84.98
2017-06-28T04:28:55.586Z,85.02
2017-06-28T04:29:21.739Z,85.4
2017-06-28T04:29:47.908Z,84.73
2017-06-28T04:30:14.015Z,85.02
2017-06-28T04:30:40.137Z,84.54
2017-06-28T04:31:06.262Z,84.63
2017-06-28T04:31:32.368Z,84.63
2017-06-28T04:31:58.528Z,84.83
2017-06-28T04:32:24.690Z,85.02
2017-06-28T04:32:50.834Z,85.11
2017-06-28T04:33:16.940Z,84.73
2017-06-28T04:33:43.057Z,85.02
2017-06-28T04:34:09.182Z,85.21
2017-06-28T04:34:35.315Z,85.5
2017-06-28T04:35:01.410Z,85.5
2017-06-28T04:35:27.501Z,84.92
2017-06-28T04:35:53.611Z,85.31
2017-06-28T04:36:19.709Z,85.78
2017-06-28T04:36:45.812Z,85.6
2017-06-28T04:37:11.956Z,85.5
2017-06-28T04:37:38.053Z,85.5
2017-06-28T04:38:04.243Z,85.6
2017-06-28T04:38:30.414Z,85.78
2017-06-28T04:38:56.509Z,85.78
2017-06-28T04:39:22.666Z,85.69
2017-06-28T04:39:48.872Z,85.11
2017-06-28T04:40:14.965Z,85.4
2017-06-28T04:40:41.099Z,85.5
2017-06-28T04:41:07.284Z,85.4
2017-06-28T04:41:33.373Z,85.5
2017-06-28T04:41:59.501Z,86.08
2017-06-28T04:42:25.643Z,86.08
2017-06-28T04:42:51.808Z,85.78
2017-06-28T04:43:17.934Z,86.18
2017-06-28T04:43:44.026Z,85.88
2017-06-28T04:44:10.159Z,85.98
2017-06-28T04:44:36.343Z,85.5
2017-06-28T04:45:02.459Z,85.78
2017-06-28T04:45:28.563Z,85.4
2017-06-28T04:45:54.700Z,85.88
2017-06-28T04:46:20.789Z,85.98
2017-06-28T04:46:46.912Z,85.88
2017-06-28T04:47:13.048Z,85.88
2017-06-28T04:47:39.162Z,86.27
2017-06-28T04:48:05.286Z,85.6
2017-06-28T04:48:31.450Z,85.88
2017-06-28T04:48:57.547Z,86.02
2017-06-28T04:49:23.686Z,85.5
2017-06-28T04:49:49.820Z,85.5
2017-06-28T04:50:15.945Z,85.74
2017-06-28T04:50:42.036Z,85.44
2017-06-28T04:51:08.167Z,85.74
2017-06-28T04:51:34.268Z,85.64
2017-06-28T04:52:00.363Z,85.64
2017-06-28T04:52:26.489Z,85.54
2017-06-28T04:52:52.622Z,85.83
2017-06-28T04:53:18.767Z,85.54
2017-06-28T04:53:44.919Z,85.64
2017-06-28T04:54:11.031Z,85.93
2017-06-28T04:54:37.189Z,85.83
2017-06-28T04:55:03.318Z,86.02
2017-06-28T04:55:29.432Z,86.18
2017-06-28T04:55:55.538Z,85.54
2017-06-28T04:56:21.698Z,86.27
2017-06-28T04:56:47.809Z,86.08
2017-06-28T04:57:13.910Z,86.56
2017-06-28T04:57:40.043Z,86.56
2017-06-28T04:58:06.137Z,86.27
2017-06-28T04:58:32.256Z,86.27
2017-06-28T04:58:58.434Z,86.18
2017-06-28T04:59:24.565Z,86.94
2017-06-28T04:59:50.725Z,86.36
2017-06-28T05:00:16.836Z,86.46
2017-06-28T05:00:42.989Z,87.04
2017-06-28T05:01:09.122Z,86.94
2017-06-28T05:01:35.237Z,86.56
2017-06-28T05:02:01.358Z,86.56
2017-06-28T05:02:27.492Z,86.27
2017-06-28T05:02:53.612Z,86.65
2017-06-28T05:03:19.703Z,86.41
2017-06-28T05:03:45.812Z,86.6
2017-06-28T05:04:11.907Z,86.41
2017-06-28T05:04:38.063Z,86.31
2017-06-28T05:05:04.153Z,86.51
2017-06-28T05:05:30.299Z,86.41
2017-06-28T05:05:56.461Z,86.69
2017-06-28T05:06:22.555Z,86.41
2017-06-28T05:06:48.646Z,86.51
2017-06-28T05:07:14.783Z,86.12
2017-06-28T05:07:40.909Z,86.02
2017-06-28T05:08:07.025Z,85.74
2017-06-28T05:08:33.190Z,85.54
2017-06-28T05:08:59.343Z,85.44
2017-06-28T05:09:25.457Z,85.83
2017-06-28T05:09:51.562Z,85.64
2017-06-28T05:10:17.696Z,85.74
2017-06-28T05:10:43.810Z,85.74
2017-06-28T05:11:09.935Z,86.12
2017-06-28T05:11:36.041Z,86.02
2017-06-28T05:12:02.131Z,86.31
2017-06-28T05:12:28.228Z,86.12
2017-06-28T05:12:54.391Z,85.93
2017-06-28T05:13:20.538Z,85.74
2017-06-28T05:13:46.704Z,85.93
2017-06-28T05:14:12.843Z,85.74
2017-06-28T05:14:38.941Z,86.12
2017-06-28T05:15:05.059Z,85.93
2017-06-28T05:15:31.189Z,86.22
2017-06-28T05:15:57.283Z,85.74
2017-06-28T05:16:23.414Z,85.93
2017-06-28T05:16:49.534Z,85.64
2017-06-28T05:17:15.625Z,85.64
2017-06-28T05:17:41.786Z,85.83
2017-06-28T05:18:07.882Z,85.74
2017-06-28T05:18:34.047Z,85.64
2017-06-28T05:19:00.272Z,85.93
2017-06-28T05:19:26.429Z,86.51
2017-06-28T05:19:52.543Z,86.41
2017-06-28T05:20:18.726Z,86.22
2017-06-28T05:20:44.834Z,86.51
2017-06-28T05:21:10.954Z,86.51
2017-06-28T05:21:37.050Z,86.41
2017-06-28T05:22:03.165Z,86.51
2017-06-28T05:22:29.268Z,86.12
2017-06-28T05:22:55.369Z,85.93
2017-06-28T05:23:21.459Z,85.83
2017-06-28T05:23:47.617Z,85.93
2017-06-28T05:24:13.778Z,85.93
2017-06-28T05:24:39.916Z,86.22
2017-06-28T05:25:06.065Z,85.83
2017-06-28T05:25:32.230Z,85.93
2017-06-28T05:25:58.342Z,86.69
2017-06-28T05:26:24.593Z,85.83
2017-06-28T05:26:50.720Z,85.93
2017-06-28T05:27:16.824Z,85.74
2017-06-28T05:27:42.987Z,85.93
2017-06-28T05:28:09.124Z,86.6
2017-06-28T05:28:35.270Z,86.41
2017-06-28T05:29:01.405Z,86.41
2017-06-28T05:29:27.549Z,86.31
2017-06-28T05:29:53.717Z,86.22
2017-06-28T05:30:19.822Z,86.6
2017-06-28T05:30:45.941Z,86.51
2017-06-28T05:31:12.033Z,86.08
2017-06-28T05:31:38.144Z,86.12
2017-06-28T05:32:04.264Z,86.85
2017-06-28T05:32:30.358Z,86.99
2017-06-28T05:32:56.464Z,86.89
2017-06-28T05:33:22.590Z,86.99
2017-06-28T05:33:48.732Z,86.89
2017-06-28T05:34:14.885Z,86.89
2017-06-28T05:34:41.022Z,86.22
2017-06-28T05:35:07.121Z,86.51
2017-06-28T05:35:33.222Z,86.69
2017-06-28T05:35:59.326Z,86.31
2017-06-28T05:36:25.419Z,86.89
2017-06-28T05:36:51.518Z,86.31
2017-06-28T05:37:17.656Z,86.51